sensor_id;sensor_type;location;lat;lon;timestamp;temperature;humidity
15083;DHT22;7640;53.116;6.878;2023-06-14T00:00:16;18.10;92.20
15083;DHT22;7640;53.116;6.878;2023-06-14T00:02:45;18.00;92.40
15083;DHT22;7640;53.116;6.878;2023-06-14T00:05:14;18.00;92.60
15083;DHT22;7640;53.116;6.878;2023-06-14T00:07:42;17.90;92.70
15083;DHT22;7640;53.116;6.878;2023-06-14T00:10:11;17.90;92.80
15083;DHT22;7640;53.116;6.878;2023-06-14T00:12:40;17.80;92.90
15083;DHT22;7640;53.116;6.878;2023-06-14T00:15:09;17.80;93.10
15083;DHT22;7640;53.116;6.878;2023-06-14T00:17:39;17.80;93.20
15083;DHT22;7640;53.116;6.878;2023-06-14T00:20:09;17.70;93.30
15083;DHT22;7640;53.116;6.878;2023-06-14T00:22:39;17.70;93.40
15083;DHT22;7640;53.116;6.878;2023-06-14T00:25:12;17.70;93.60
15083;DHT22;7640;53.116;6.878;2023-06-14T00:27:56;17.70;93.80
15083;DHT22;7640;53.116;6.878;2023-06-14T00:30:25;17.60;94.00
15083;DHT22;7640;53.116;6.878;2023-06-14T00:32:59;17.50;94.20
15083;DHT22;7640;53.116;6.878;2023-06-14T00:35:28;17.50;94.40
15083;DHT22;7640;53.116;6.878;2023-06-14T00:37:57;17.50;94.50
15083;DHT22;7640;53.116;6.878;2023-06-14T00:40:26;17.50;94.70
15083;DHT22;7640;53.116;6.878;2023-06-14T00:42:55;17.40;94.80
15083;DHT22;7640;53.116;6.878;2023-06-14T00:45:24;17.40;94.90
15083;DHT22;7640;53.116;6.878;2023-06-14T00:47:53;17.30;95.00
15083;DHT22;7640;53.116;6.878;2023-06-14T00:50:24;17.40;95.20
15083;DHT22;7640;53.116;6.878;2023-06-14T00:52:53;17.30;95.30
15083;DHT22;7640;53.116;6.878;2023-06-14T00:55:21;17.30;95.50
15083;DHT22;7640;53.116;6.878;2023-06-14T00:57:50;17.30;95.70
15083;DHT22;7640;53.116;6.878;2023-06-14T01:00:19;17.20;95.80
15083;DHT22;7640;53.116;6.878;2023-06-14T01:02:48;17.10;96.00
15083;DHT22;7640;53.116;6.878;2023-06-14T01:05:18;17.20;96.10
15083;DHT22;7640;53.116;6.878;2023-06-14T01:07:57;17.10;96.30
15083;DHT22;7640;53.116;6.878;2023-06-14T01:10:41;17.10;96.50
15083;DHT22;7640;53.116;6.878;2023-06-14T01:13:20;17.00;96.60
15083;DHT22;7640;53.116;6.878;2023-06-14T01:15:52;17.10;96.80
15083;DHT22;7640;53.116;6.878;2023-06-14T01:18:21;17.00;96.90
15083;DHT22;7640;53.116;6.878;2023-06-14T01:20:51;17.00;97.10
15083;DHT22;7640;53.116;6.878;2023-06-14T01:23:24;16.90;97.20
15083;DHT22;7640;53.116;6.878;2023-06-14T01:26:00;16.80;97.30
15083;DHT22;7640;53.116;6.878;2023-06-14T01:28:31;16.80;97.50
15083;DHT22;7640;53.116;6.878;2023-06-14T01:31:02;16.80;97.70
15083;DHT22;7640;53.116;6.878;2023-06-14T01:33:33;16.70;97.90
15083;DHT22;7640;53.116;6.878;2023-06-14T01:36:02;16.70;98.00
15083;DHT22;7640;53.116;6.878;2023-06-14T01:38:34;16.70;98.10
15083;DHT22;7640;53.116;6.878;2023-06-14T01:41:04;16.70;98.20
15083;DHT22;7640;53.116;6.878;2023-06-14T01:43:34;16.70;98.40
15083;DHT22;7640;53.116;6.878;2023-06-14T01:46:03;16.60;98.50
15083;DHT22;7640;53.116;6.878;2023-06-14T01:48:33;16.60;98.70
15083;DHT22;7640;53.116;6.878;2023-06-14T01:51:02;16.60;98.90
15083;DHT22;7640;53.116;6.878;2023-06-14T01:53:30;16.50;98.90
15083;DHT22;7640;53.116;6.878;2023-06-14T01:56:00;16.50;99.10
15083;DHT22;7640;53.116;6.878;2023-06-14T01:58:29;16.50;99.30
15083;DHT22;7640;53.116;6.878;2023-06-14T02:01:00;16.50;99.30
15083;DHT22;7640;53.116;6.878;2023-06-14T02:03:29;16.50;99.50
15083;DHT22;7640;53.116;6.878;2023-06-14T02:05:58;16.40;99.60
15083;DHT22;7640;53.116;6.878;2023-06-14T02:08:27;16.40;99.70
15083;DHT22;7640;53.116;6.878;2023-06-14T02:10:55;16.40;99.90
15083;DHT22;7640;53.116;6.878;2023-06-14T02:13:25;16.40;99.90
15083;DHT22;7640;53.116;6.878;2023-06-14T02:15:54;16.30;99.90
15083;DHT22;7640;53.116;6.878;2023-06-14T02:18:24;16.30;99.90
15083;DHT22;7640;53.116;6.878;2023-06-14T02:20:53;16.30;99.90
15083;DHT22;7640;53.116;6.878;2023-06-14T02:23:22;16.30;99.90
15083;DHT22;7640;53.116;6.878;2023-06-14T02:25:50;16.30;99.90
15083;DHT22;7640;53.116;6.878;2023-06-14T02:28:19;16.20;99.90
15083;DHT22;7640;53.116;6.878;2023-06-14T02:30:48;16.20;99.90
15083;DHT22;7640;53.116;6.878;2023-06-14T02:33:17;16.20;99.90
15083;DHT22;7640;53.116;6.878;2023-06-14T02:35:46;16.10;99.90
15083;DHT22;7640;53.116;6.878;2023-06-14T02:38:15;16.10;99.90
15083;DHT22;7640;53.116;6.878;2023-06-14T02:40:43;16.10;99.90
15083;DHT22;7640;53.116;6.878;2023-06-14T02:43:12;16.00;99.90
15083;DHT22;7640;53.116;6.878;2023-06-14T02:45:41;16.00;99.90
15083;DHT22;7640;53.116;6.878;2023-06-14T02:48:12;16.00;99.90
15083;DHT22;7640;53.116;6.878;2023-06-14T02:50:41;16.00;99.90
15083;DHT22;7640;53.116;6.878;2023-06-14T02:53:09;16.00;99.90
15083;DHT22;7640;53.116;6.878;2023-06-14T02:55:38;16.00;99.90
15083;DHT22;7640;53.116;6.878;2023-06-14T02:58:07;15.90;99.90
15083;DHT22;7640;53.116;6.878;2023-06-14T03:00:37;15.90;99.90
15083;DHT22;7640;53.116;6.878;2023-06-14T03:03:05;15.90;99.90
15083;DHT22;7640;53.116;6.878;2023-06-14T03:05:44;15.80;99.90
15083;DHT22;7640;53.116;6.878;2023-06-14T03:08:14;15.80;99.90
15083;DHT22;7640;53.116;6.878;2023-06-14T03:10:44;15.80;99.90
15083;DHT22;7640;53.116;6.878;2023-06-14T03:13:12;15.80;99.90
15083;DHT22;7640;53.116;6.878;2023-06-14T03:15:43;15.70;99.90
15083;DHT22;7640;53.116;6.878;2023-06-14T03:18:12;15.70;99.90
15083;DHT22;7640;53.116;6.878;2023-06-14T03:20:43;15.70;99.90
15083;DHT22;7640;53.116;6.878;2023-06-14T03:23:12;15.70;99.90
15083;DHT22;7640;53.116;6.878;2023-06-14T03:25:41;15.70;99.90
15083;DHT22;7640;53.116;6.878;2023-06-14T03:28:09;15.70;99.90
15083;DHT22;7640;53.116;6.878;2023-06-14T03:30:38;15.70;99.90
15083;DHT22;7640;53.116;6.878;2023-06-14T03:33:07;15.60;99.90
15083;DHT22;7640;53.116;6.878;2023-06-14T03:35:37;15.60;99.90
15083;DHT22;7640;53.116;6.878;2023-06-14T03:38:07;15.60;99.90
15083;DHT22;7640;53.116;6.878;2023-06-14T03:40:36;15.60;99.90
15083;DHT22;7640;53.116;6.878;2023-06-14T03:43:04;15.60;99.90
15083;DHT22;7640;53.116;6.878;2023-06-14T03:45:32;15.60;99.90
15083;DHT22;7640;53.116;6.878;2023-06-14T03:48:01;15.60;99.90
15083;DHT22;7640;53.116;6.878;2023-06-14T03:50:30;15.70;99.90
15083;DHT22;7640;53.116;6.878;2023-06-14T03:52:59;15.70;99.90
15083;DHT22;7640;53.116;6.878;2023-06-14T03:55:30;15.70;99.90
15083;DHT22;7640;53.116;6.878;2023-06-14T03:58:03;15.70;99.90
15083;DHT22;7640;53.116;6.878;2023-06-14T04:00:31;15.70;99.90
15083;DHT22;7640;53.116;6.878;2023-06-14T04:03:00;15.70;99.90
15083;DHT22;7640;53.116;6.878;2023-06-14T04:05:30;15.80;99.90
15083;DHT22;7640;53.116;6.878;2023-06-14T04:07:59;15.80;99.90
15083;DHT22;7640;53.116;6.878;2023-06-14T04:10:27;15.80;99.90
15083;DHT22;7640;53.116;6.878;2023-06-14T04:12:58;15.80;99.90
15083;DHT22;7640;53.116;6.878;2023-06-14T04:15:26;15.90;99.90
15083;DHT22;7640;53.116;6.878;2023-06-14T04:17:55;15.90;99.90
15083;DHT22;7640;53.116;6.878;2023-06-14T04:20:25;15.90;99.90
15083;DHT22;7640;53.116;6.878;2023-06-14T04:22:56;16.00;99.90
15083;DHT22;7640;53.116;6.878;2023-06-14T04:25:30;16.00;99.90
15083;DHT22;7640;53.116;6.878;2023-06-14T04:27:59;16.00;99.90
15083;DHT22;7640;53.116;6.878;2023-06-14T04:30:28;16.10;99.90
15083;DHT22;7640;53.116;6.878;2023-06-14T04:32:58;16.10;99.90
15083;DHT22;7640;53.116;6.878;2023-06-14T04:35:27;16.10;99.90
15083;DHT22;7640;53.116;6.878;2023-06-14T04:37:56;16.20;99.90
15083;DHT22;7640;53.116;6.878;2023-06-14T04:40:24;16.30;99.90
15083;DHT22;7640;53.116;6.878;2023-06-14T04:42:54;16.30;99.90
15083;DHT22;7640;53.116;6.878;2023-06-14T04:45:24;16.30;99.90
15083;DHT22;7640;53.116;6.878;2023-06-14T04:47:59;16.40;99.90
15083;DHT22;7640;53.116;6.878;2023-06-14T04:50:28;16.40;99.90
15083;DHT22;7640;53.116;6.878;2023-06-14T04:52:59;16.50;99.90
15083;DHT22;7640;53.116;6.878;2023-06-14T04:55:28;16.50;99.90
15083;DHT22;7640;53.116;6.878;2023-06-14T04:57:58;16.60;99.90
15083;DHT22;7640;53.116;6.878;2023-06-14T05:00:26;16.70;99.90
15083;DHT22;7640;53.116;6.878;2023-06-14T05:02:55;16.70;99.90
15083;DHT22;7640;53.116;6.878;2023-06-14T05:05:24;16.80;99.90
15083;DHT22;7640;53.116;6.878;2023-06-14T05:07:52;16.90;99.90
15083;DHT22;7640;53.116;6.878;2023-06-14T05:10:21;16.90;99.90
15083;DHT22;7640;53.116;6.878;2023-06-14T05:12:49;17.00;99.90
15083;DHT22;7640;53.116;6.878;2023-06-14T05:15:21;17.00;99.90
15083;DHT22;7640;53.116;6.878;2023-06-14T05:17:53;17.10;99.90
15083;DHT22;7640;53.116;6.878;2023-06-14T05:20:23;17.20;99.90
15083;DHT22;7640;53.116;6.878;2023-06-14T05:22:54;17.20;99.90
15083;DHT22;7640;53.116;6.878;2023-06-14T05:25:23;17.30;99.90
15083;DHT22;7640;53.116;6.878;2023-06-14T05:27:52;17.30;99.90
15083;DHT22;7640;53.116;6.878;2023-06-14T05:30:22;17.40;99.90
15083;DHT22;7640;53.116;6.878;2023-06-14T05:32:51;17.50;99.90
15083;DHT22;7640;53.116;6.878;2023-06-14T05:35:22;17.60;99.90
15083;DHT22;7640;53.116;6.878;2023-06-14T05:37:53;17.60;99.90
15083;DHT22;7640;53.116;6.878;2023-06-14T05:40:22;17.70;99.90
15083;DHT22;7640;53.116;6.878;2023-06-14T05:42:51;17.80;99.90
15083;DHT22;7640;53.116;6.878;2023-06-14T05:45:21;17.90;99.90
15083;DHT22;7640;53.116;6.878;2023-06-14T05:47:50;18.00;99.90
15083;DHT22;7640;53.116;6.878;2023-06-14T05:50:19;18.00;99.90
15083;DHT22;7640;53.116;6.878;2023-06-14T05:52:48;18.20;99.90
15083;DHT22;7640;53.116;6.878;2023-06-14T05:55:16;18.20;99.90
15083;DHT22;7640;53.116;6.878;2023-06-14T05:57:45;18.30;99.90
15083;DHT22;7640;53.116;6.878;2023-06-14T06:00:15;18.40;99.90
15083;DHT22;7640;53.116;6.878;2023-06-14T06:02:46;18.50;99.90
15083;DHT22;7640;53.116;6.878;2023-06-14T06:05:15;18.60;99.90
15083;DHT22;7640;53.116;6.878;2023-06-14T06:07:44;18.70;99.90
15083;DHT22;7640;53.116;6.878;2023-06-14T06:10:14;18.80;99.90
15083;DHT22;7640;53.116;6.878;2023-06-14T06:12:42;18.90;99.90
15083;DHT22;7640;53.116;6.878;2023-06-14T06:15:11;19.00;99.90
15083;DHT22;7640;53.116;6.878;2023-06-14T06:17:40;19.10;99.90
15083;DHT22;7640;53.116;6.878;2023-06-14T06:20:24;19.20;99.90
15083;DHT22;7640;53.116;6.878;2023-06-14T06:22:57;19.30;99.90
15083;DHT22;7640;53.116;6.878;2023-06-14T06:25:26;19.40;99.90
15083;DHT22;7640;53.116;6.878;2023-06-14T06:27:55;19.50;99.90
15083;DHT22;7640;53.116;6.878;2023-06-14T06:30:25;19.60;99.90
15083;DHT22;7640;53.116;6.878;2023-06-14T06:32:53;19.70;99.90
15083;DHT22;7640;53.116;6.878;2023-06-14T06:35:24;19.90;99.90
15083;DHT22;7640;53.116;6.878;2023-06-14T06:37:54;20.00;99.90
15083;DHT22;7640;53.116;6.878;2023-06-14T06:40:23;20.10;99.90
15083;DHT22;7640;53.116;6.878;2023-06-14T06:42:51;20.20;99.90
15083;DHT22;7640;53.116;6.878;2023-06-14T06:45:20;20.30;99.90
15083;DHT22;7640;53.116;6.878;2023-06-14T06:47:51;20.40;99.90
15083;DHT22;7640;53.116;6.878;2023-06-14T06:50:21;20.50;99.90
15083;DHT22;7640;53.116;6.878;2023-06-14T06:52:53;20.60;99.90
15083;DHT22;7640;53.116;6.878;2023-06-14T06:55:22;20.80;99.90
15083;DHT22;7640;53.116;6.878;2023-06-14T06:57:50;20.90;99.90
15083;DHT22;7640;53.116;6.878;2023-06-14T07:00:21;21.00;99.90
15083;DHT22;7640;53.116;6.878;2023-06-14T07:02:52;21.10;99.90
15083;DHT22;7640;53.116;6.878;2023-06-14T07:05:22;21.20;99.60
15083;DHT22;7640;53.116;6.878;2023-06-14T07:07:50;21.30;99.10
15083;DHT22;7640;53.116;6.878;2023-06-14T07:10:24;21.40;98.80
15083;DHT22;7640;53.116;6.878;2023-06-14T07:12:52;21.50;98.50
15083;DHT22;7640;53.116;6.878;2023-06-14T07:15:21;21.60;98.20
15083;DHT22;7640;53.116;6.878;2023-06-14T07:17:49;21.70;98.10
15083;DHT22;7640;53.116;6.878;2023-06-14T07:20:20;21.80;97.50
15083;DHT22;7640;53.116;6.878;2023-06-14T07:22:49;21.90;97.20
15083;DHT22;7640;53.116;6.878;2023-06-14T07:25:19;22.00;97.10
15083;DHT22;7640;53.116;6.878;2023-06-14T07:27:49;22.10;96.90
15083;DHT22;7640;53.116;6.878;2023-06-14T07:30:17;22.20;96.70
15083;DHT22;7640;53.116;6.878;2023-06-14T07:32:46;22.30;96.40
15083;DHT22;7640;53.116;6.878;2023-06-14T07:35:15;22.40;96.00
15083;DHT22;7640;53.116;6.878;2023-06-14T07:37:44;22.50;95.90
15083;DHT22;7640;53.116;6.878;2023-06-14T07:40:13;22.50;95.80
15083;DHT22;7640;53.116;6.878;2023-06-14T07:42:43;22.70;95.40
15083;DHT22;7640;53.116;6.878;2023-06-14T07:45:13;22.80;95.10
15083;DHT22;7640;53.116;6.878;2023-06-14T07:47:42;22.80;94.60
15083;DHT22;7640;53.116;6.878;2023-06-14T07:50:11;22.90;94.50
15083;DHT22;7640;53.116;6.878;2023-06-14T07:52:40;23.00;94.10
15083;DHT22;7640;53.116;6.878;2023-06-14T07:55:09;23.00;93.80
15083;DHT22;7640;53.116;6.878;2023-06-14T07:57:38;23.10;93.60
15083;DHT22;7640;53.116;6.878;2023-06-14T08:00:09;23.20;93.50
15083;DHT22;7640;53.116;6.878;2023-06-14T08:02:42;23.20;93.50
15083;DHT22;7640;53.116;6.878;2023-06-14T08:05:12;23.30;93.40
15083;DHT22;7640;53.116;6.878;2023-06-14T08:07:41;23.40;93.20
15083;DHT22;7640;53.116;6.878;2023-06-14T08:10:11;23.50;93.00
15083;DHT22;7640;53.116;6.878;2023-06-14T08:12:40;23.60;92.80
15083;DHT22;7640;53.116;6.878;2023-06-14T08:15:10;23.70;92.70
15083;DHT22;7640;53.116;6.878;2023-06-14T08:17:42;23.80;92.70
15083;DHT22;7640;53.116;6.878;2023-06-14T08:20:11;23.90;92.10
15083;DHT22;7640;53.116;6.878;2023-06-14T08:22:40;24.10;92.10
15083;DHT22;7640;53.116;6.878;2023-06-14T08:25:10;24.20;92.00
15083;DHT22;7640;53.116;6.878;2023-06-14T08:27:39;24.20;91.70
15083;DHT22;7640;53.116;6.878;2023-06-14T08:30:11;24.20;91.40
15083;DHT22;7640;53.116;6.878;2023-06-14T08:32:40;24.20;91.20
15083;DHT22;7640;53.116;6.878;2023-06-14T08:35:09;24.20;91.10
15083;DHT22;7640;53.116;6.878;2023-06-14T08:37:39;24.30;91.20
15083;DHT22;7640;53.116;6.878;2023-06-14T08:40:18;24.30;91.70
15083;DHT22;7640;53.116;6.878;2023-06-14T08:42:50;24.40;91.10
15083;DHT22;7640;53.116;6.878;2023-06-14T08:45:22;24.50;90.70
15083;DHT22;7640;53.116;6.878;2023-06-14T08:47:55;24.60;90.80
15083;DHT22;7640;53.116;6.878;2023-06-14T08:50:27;24.60;91.00
15083;DHT22;7640;53.116;6.878;2023-06-14T08:52:59;24.80;90.80
15083;DHT22;7640;53.116;6.878;2023-06-14T08:55:32;24.80;90.50
15083;DHT22;7640;53.116;6.878;2023-06-14T08:58:04;24.90;90.50
15083;DHT22;7640;53.116;6.878;2023-06-14T09:00:34;25.00;90.90
15083;DHT22;7640;53.116;6.878;2023-06-14T09:03:05;25.10;90.50
15083;DHT22;7640;53.116;6.878;2023-06-14T09:05:40;25.20;90.40
15083;DHT22;7640;53.116;6.878;2023-06-14T09:08:09;25.30;90.20
15083;DHT22;7640;53.116;6.878;2023-06-14T09:10:39;25.40;90.20
15083;DHT22;7640;53.116;6.878;2023-06-14T09:13:08;25.50;89.30
15083;DHT22;7640;53.116;6.878;2023-06-14T09:15:38;25.50;88.30
15083;DHT22;7640;53.116;6.878;2023-06-14T09:18:07;25.50;87.80
15083;DHT22;7640;53.116;6.878;2023-06-14T09:20:37;25.50;88.00
15083;DHT22;7640;53.116;6.878;2023-06-14T09:23:05;25.60;87.50
15083;DHT22;7640;53.116;6.878;2023-06-14T09:25:42;25.60;87.50
15083;DHT22;7640;53.116;6.878;2023-06-14T09:28:12;25.70;87.30
15083;DHT22;7640;53.116;6.878;2023-06-14T09:30:42;25.80;87.30
15083;DHT22;7640;53.116;6.878;2023-06-14T09:33:11;25.80;87.60
15083;DHT22;7640;53.116;6.878;2023-06-14T09:35:45;25.90;87.20
15083;DHT22;7640;53.116;6.878;2023-06-14T09:38:14;26.00;87.40
15083;DHT22;7640;53.116;6.878;2023-06-14T09:40:42;26.10;87.00
15083;DHT22;7640;53.116;6.878;2023-06-14T09:43:11;26.20;87.00
15083;DHT22;7640;53.116;6.878;2023-06-14T09:45:39;26.30;86.70
15083;DHT22;7640;53.116;6.878;2023-06-14T09:48:12;26.30;86.30
15083;DHT22;7640;53.116;6.878;2023-06-14T09:50:46;26.40;85.50
15083;DHT22;7640;53.116;6.878;2023-06-14T09:53:15;26.40;84.70
15083;DHT22;7640;53.116;6.878;2023-06-14T09:55:45;26.50;85.00
15083;DHT22;7640;53.116;6.878;2023-06-14T09:58:14;26.60;84.40
15083;DHT22;7640;53.116;6.878;2023-06-14T10:00:47;26.60;83.80
15083;DHT22;7640;53.116;6.878;2023-06-14T10:03:23;26.70;82.60
15083;DHT22;7640;53.116;6.878;2023-06-14T10:05:58;26.70;82.60
15083;DHT22;7640;53.116;6.878;2023-06-14T10:08:31;26.70;82.70
15083;DHT22;7640;53.116;6.878;2023-06-14T10:11:01;26.80;82.70
15083;DHT22;7640;53.116;6.878;2023-06-14T10:13:32;26.90;81.70
15083;DHT22;7640;53.116;6.878;2023-06-14T10:16:07;27.00;81.10
15083;DHT22;7640;53.116;6.878;2023-06-14T10:18:45;27.10;80.50
15083;DHT22;7640;53.116;6.878;2023-06-14T10:21:22;27.20;80.10
15083;DHT22;7640;53.116;6.878;2023-06-14T10:23:56;27.20;78.90
15083;DHT22;7640;53.116;6.878;2023-06-14T10:26:27;27.20;78.30
15083;DHT22;7640;53.116;6.878;2023-06-14T10:29:00;27.30;79.40
15083;DHT22;7640;53.116;6.878;2023-06-14T10:31:44;27.40;79.90
15083;DHT22;7640;53.116;6.878;2023-06-14T10:34:21;27.50;80.60
15083;DHT22;7640;53.116;6.878;2023-06-14T10:37:02;27.60;79.90
15083;DHT22;7640;53.116;6.878;2023-06-14T10:39:33;27.70;80.00
15083;DHT22;7640;53.116;6.878;2023-06-14T10:42:06;27.80;80.10
15083;DHT22;7640;53.116;6.878;2023-06-14T10:44:40;28.00;79.90
15083;DHT22;7640;53.116;6.878;2023-06-14T10:47:21;28.10;80.00
15083;DHT22;7640;53.116;6.878;2023-06-14T10:49:53;28.30;79.10
15083;DHT22;7640;53.116;6.878;2023-06-14T10:52:25;28.50;79.40
15083;DHT22;7640;53.116;6.878;2023-06-14T10:55:04;28.60;79.00
15083;DHT22;7640;53.116;6.878;2023-06-14T10:57:37;28.70;77.80
15083;DHT22;7640;53.116;6.878;2023-06-14T11:00:10;28.70;77.10
15083;DHT22;7640;53.116;6.878;2023-06-14T11:05:52;28.80;76.20
15083;DHT22;7640;53.116;6.878;2023-06-14T11:08:49;28.80;76.60
15083;DHT22;7640;53.116;6.878;2023-06-14T11:11:36;28.90;76.50
15083;DHT22;7640;53.116;6.878;2023-06-14T11:14:06;28.90;76.20
15083;DHT22;7640;53.116;6.878;2023-06-14T11:16:36;29.00;75.70
15083;DHT22;7640;53.116;6.878;2023-06-14T11:19:06;29.10;75.50
15083;DHT22;7640;53.116;6.878;2023-06-14T11:21:40;29.10;76.10
15083;DHT22;7640;53.116;6.878;2023-06-14T11:24:10;29.30;75.40
15083;DHT22;7640;53.116;6.878;2023-06-14T11:26:40;29.30;75.20
15083;DHT22;7640;53.116;6.878;2023-06-14T11:29:09;29.40;74.90
15083;DHT22;7640;53.116;6.878;2023-06-14T11:31:43;29.40;74.30
15083;DHT22;7640;53.116;6.878;2023-06-14T11:34:14;29.50;73.10
15083;DHT22;7640;53.116;6.878;2023-06-14T11:36:43;29.50;73.20
15083;DHT22;7640;53.116;6.878;2023-06-14T11:39:13;29.60;73.80
15083;DHT22;7640;53.116;6.878;2023-06-14T11:41:43;29.70;72.90
15083;DHT22;7640;53.116;6.878;2023-06-14T11:44:12;29.70;72.40
15083;DHT22;7640;53.116;6.878;2023-06-14T11:46:41;29.60;72.50
15083;DHT22;7640;53.116;6.878;2023-06-14T11:49:10;29.70;73.70
15083;DHT22;7640;53.116;6.878;2023-06-14T11:51:42;29.80;73.80
15083;DHT22;7640;53.116;6.878;2023-06-14T11:54:12;30.10;73.90
15083;DHT22;7640;53.116;6.878;2023-06-14T11:56:41;30.30;72.40
15083;DHT22;7640;53.116;6.878;2023-06-14T11:59:10;30.40;71.50
15083;DHT22;7640;53.116;6.878;2023-06-14T12:01:43;30.50;71.40
15083;DHT22;7640;53.116;6.878;2023-06-14T12:04:12;30.60;71.40
15083;DHT22;7640;53.116;6.878;2023-06-14T12:06:42;30.80;71.70
15083;DHT22;7640;53.116;6.878;2023-06-14T12:09:11;31.10;71.00
15083;DHT22;7640;53.116;6.878;2023-06-14T12:11:44;31.40;70.00
15083;DHT22;7640;53.116;6.878;2023-06-14T12:14:12;31.60;70.30
15083;DHT22;7640;53.116;6.878;2023-06-14T12:16:41;31.80;69.90
15083;DHT22;7640;53.116;6.878;2023-06-14T12:19:15;32.10;68.90
15083;DHT22;7640;53.116;6.878;2023-06-14T12:21:47;32.30;69.00
15083;DHT22;7640;53.116;6.878;2023-06-14T12:24:17;32.60;67.40
15083;DHT22;7640;53.116;6.878;2023-06-14T12:26:46;32.70;66.40
15083;DHT22;7640;53.116;6.878;2023-06-14T12:29:15;32.80;66.40
15083;DHT22;7640;53.116;6.878;2023-06-14T12:31:43;32.80;66.20
15083;DHT22;7640;53.116;6.878;2023-06-14T12:34:12;32.90;66.70
15083;DHT22;7640;53.116;6.878;2023-06-14T12:36:41;33.20;66.70
15083;DHT22;7640;53.116;6.878;2023-06-14T12:39:13;33.50;65.70
15083;DHT22;7640;53.116;6.878;2023-06-14T12:41:43;33.50;64.80
15083;DHT22;7640;53.116;6.878;2023-06-14T12:44:12;33.40;64.80
15083;DHT22;7640;53.116;6.878;2023-06-14T12:46:41;33.30;64.70
15083;DHT22;7640;53.116;6.878;2023-06-14T12:49:11;33.10;64.70
15083;DHT22;7640;53.116;6.878;2023-06-14T12:51:41;32.80;65.10
15083;DHT22;7640;53.116;6.878;2023-06-14T12:54:10;32.60;65.20
15083;DHT22;7640;53.116;6.878;2023-06-14T12:56:40;32.60;65.30
15083;DHT22;7640;53.116;6.878;2023-06-14T12:59:10;32.50;65.50
15083;DHT22;7640;53.116;6.878;2023-06-14T13:01:39;32.70;65.50
15083;DHT22;7640;53.116;6.878;2023-06-14T13:04:11;32.90;65.60
15083;DHT22;7640;53.116;6.878;2023-06-14T13:06:40;33.30;66.30
15083;DHT22;7640;53.116;6.878;2023-06-14T13:09:09;33.80;65.70
15083;DHT22;7640;53.116;6.878;2023-06-14T13:11:37;34.20;64.10
15083;DHT22;7640;53.116;6.878;2023-06-14T13:14:07;34.50;63.10
15083;DHT22;7640;53.116;6.878;2023-06-14T13:16:52;34.90;62.40
15083;DHT22;7640;53.116;6.878;2023-06-14T13:19:20;34.80;61.30
15083;DHT22;7640;53.116;6.878;2023-06-14T13:21:49;34.50;60.80
15083;DHT22;7640;53.116;6.878;2023-06-14T13:24:18;34.10;61.10
15083;DHT22;7640;53.116;6.878;2023-06-14T13:26:46;33.70;62.00
15083;DHT22;7640;53.116;6.878;2023-06-14T13:29:16;33.40;63.00
15083;DHT22;7640;53.116;6.878;2023-06-14T13:31:45;33.50;64.20
15083;DHT22;7640;53.116;6.878;2023-06-14T13:34:14;33.80;64.10
15083;DHT22;7640;53.116;6.878;2023-06-14T13:36:42;34.30;63.80
15083;DHT22;7640;53.116;6.878;2023-06-14T13:39:10;34.80;63.50
15083;DHT22;7640;53.116;6.878;2023-06-14T13:41:39;35.10;62.70
15083;DHT22;7640;53.116;6.878;2023-06-14T13:44:07;35.20;62.10
15083;DHT22;7640;53.116;6.878;2023-06-14T13:46:42;35.50;62.30
15083;DHT22;7640;53.116;6.878;2023-06-14T13:49:11;35.80;61.30
15083;DHT22;7640;53.116;6.878;2023-06-14T13:51:39;36.20;60.30
15083;DHT22;7640;53.116;6.878;2023-06-14T13:54:08;36.40;59.50
15083;DHT22;7640;53.116;6.878;2023-06-14T13:56:36;36.30;59.10
15083;DHT22;7640;53.116;6.878;2023-06-14T13:59:05;36.20;59.50
15083;DHT22;7640;53.116;6.878;2023-06-14T14:01:34;36.30;59.50
15083;DHT22;7640;53.116;6.878;2023-06-14T14:04:05;36.70;59.30
15083;DHT22;7640;53.116;6.878;2023-06-14T14:06:33;37.10;58.80
15083;DHT22;7640;53.116;6.878;2023-06-14T14:09:02;37.50;58.10
15083;DHT22;7640;53.116;6.878;2023-06-14T14:11:31;37.90;57.20
15083;DHT22;7640;53.116;6.878;2023-06-14T14:14:00;38.30;57.20
15083;DHT22;7640;53.116;6.878;2023-06-14T14:16:28;38.70;56.50
15083;DHT22;7640;53.116;6.878;2023-06-14T14:18:58;38.60;55.80
15083;DHT22;7640;53.116;6.878;2023-06-14T14:21:28;37.90;56.10
15083;DHT22;7640;53.116;6.878;2023-06-14T14:23:57;37.30;56.30
15083;DHT22;7640;53.116;6.878;2023-06-14T14:26:26;36.60;56.70
15083;DHT22;7640;53.116;6.878;2023-06-14T14:28:55;36.00;57.30
15083;DHT22;7640;53.116;6.878;2023-06-14T14:31:23;35.30;58.10
15083;DHT22;7640;53.116;6.878;2023-06-14T14:33:52;34.80;58.50
15083;DHT22;7640;53.116;6.878;2023-06-14T14:36:21;34.40;58.90
15083;DHT22;7640;53.116;6.878;2023-06-14T14:38:51;34.00;59.10
15083;DHT22;7640;53.116;6.878;2023-06-14T14:41:19;33.60;59.60
15083;DHT22;7640;53.116;6.878;2023-06-14T14:43:48;33.20;60.20
15083;DHT22;7640;53.116;6.878;2023-06-14T14:46:17;33.00;60.90
15083;DHT22;7640;53.116;6.878;2023-06-14T14:48:45;32.70;61.90
15083;DHT22;7640;53.116;6.878;2023-06-14T14:51:14;33.10;63.20
15083;DHT22;7640;53.116;6.878;2023-06-14T14:53:42;33.90;62.60
15083;DHT22;7640;53.116;6.878;2023-06-14T14:56:12;35.00;60.60
15083;DHT22;7640;53.116;6.878;2023-06-14T14:58:41;36.10;59.30
15083;DHT22;7640;53.116;6.878;2023-06-14T15:01:10;36.80;58.10
15083;DHT22;7640;53.116;6.878;2023-06-14T15:03:42;37.00;57.20
15083;DHT22;7640;53.116;6.878;2023-06-14T15:06:25;36.60;57.00
15083;DHT22;7640;53.116;6.878;2023-06-14T15:08:55;36.10;57.30
15083;DHT22;7640;53.116;6.878;2023-06-14T15:11:25;35.70;57.50
15083;DHT22;7640;53.116;6.878;2023-06-14T15:13:54;35.30;58.10
15083;DHT22;7640;53.116;6.878;2023-06-14T15:16:22;35.30;58.60
15083;DHT22;7640;53.116;6.878;2023-06-14T15:18:51;35.60;58.60
15083;DHT22;7640;53.116;6.878;2023-06-14T15:21:20;36.20;58.10
15083;DHT22;7640;53.116;6.878;2023-06-14T15:23:49;36.80;57.10
15083;DHT22;7640;53.116;6.878;2023-06-14T15:26:20;37.00;57.60
15083;DHT22;7640;53.116;6.878;2023-06-14T15:28:53;37.20;56.90
15083;DHT22;7640;53.116;6.878;2023-06-14T15:31:21;37.20;56.10
15083;DHT22;7640;53.116;6.878;2023-06-14T15:33:54;37.00;55.60
15083;DHT22;7640;53.116;6.878;2023-06-14T15:36:22;36.50;55.90
15083;DHT22;7640;53.116;6.878;2023-06-14T15:38:51;36.10;56.40
15083;DHT22;7640;53.116;6.878;2023-06-14T15:41:19;36.20;57.20
15083;DHT22;7640;53.116;6.878;2023-06-14T15:43:48;36.80;57.10
15083;DHT22;7640;53.116;6.878;2023-06-14T15:46:21;37.50;56.20
15083;DHT22;7640;53.116;6.878;2023-06-14T15:48:49;38.30;55.80
15083;DHT22;7640;53.116;6.878;2023-06-14T15:51:18;39.10;55.40
15083;DHT22;7640;53.116;6.878;2023-06-14T15:53:47;39.70;54.30
15083;DHT22;7640;53.116;6.878;2023-06-14T15:56:16;39.70;53.40
15083;DHT22;7640;53.116;6.878;2023-06-14T15:58:44;39.10;53.20
15083;DHT22;7640;53.116;6.878;2023-06-14T16:01:13;38.40;53.60
15083;DHT22;7640;53.116;6.878;2023-06-14T16:03:42;37.70;54.20
15083;DHT22;7640;53.116;6.878;2023-06-14T16:06:12;37.00;54.70